Bezig met laden...

Meteo / TAF / Notam

België
  • EBAW - ANTWERPEN / DEURNE
    EBAW 010850Z 34013KT 9999 FEW010 BKN014 09/06 Q1016 TEMPO 34015G25KT
    TAF EBAW 010810Z 0109/0118 35012KT 9999 SCT020TCU PROB40 TEMPO 0109/0112 35015G25KT 4000 SHRA SCT008 BKN012
  • EBBE - BEAUVECHAIN
    EBBE 010913Z 33011KT 5000 -RA SCT007 BKN009 BKN012 07/07 Q1015 GRN GRN TEMPO YLO
    TAF EBBE 010541Z 0107/0116 32010G20KT 9999 SCT013 BKN018 TEMPO 0107/0116 34015G25KT 7000 -SHRA BKN010TCU OVC014 TEMPO 0107/0112 SCT006 BKN010 OVC012
  • EBBL - KLEINE-BROGEL
    EBBL 010913Z 35009KT 6000 RA BKN004 BKN013 08/07 Q1014 YLO YLO TEMPO GRN
    TAF AMD EBBL 010557Z 0107/0116 31008KT 9999 BKN017 TEMPO 0107/0116 36010G20KT 5000 -SHRA-RA SCT008 BKN015TCU PROB40 TEMPO 0107/0114 01015G25KT 4000 SHRA SCT007 SCT012TCU PROB30 TEMPO 0107/0112 36015G32KT 3500 SHRA SCT006 BKN010TCU BECMG 0108/0110 35015G25
  • EBBR - BRUSSELS / BRUSSELS-NATIONAL
    EBBR 010850Z 34012KT 8000 -RA SCT008 BKN012TCU 08/06 Q1016 TEMPO BKN008
    TAF EBBR 010501Z 0106/0212 34012KT 9999 BKN020 PROB40 TEMPO 0106/0110 34015G25KT 4000 SHRA SHGS SCT006 BKN010CB BECMG 0118/0120 SCT008 BKN012 BECMG 0200/0202 04006KT 3000 BR BKN006 PROB40 TEMPO 0203/0210 1500 BR BKN004
  • EBCI - CHARLEROI / BRUSSELS SOUTH
    EBCI 010850Z 33010KT 290V350 3000 -DZ FEW003 OVC005 07/05 Q1016 TEMPO 2000 SHRA
    TAF AMD EBCI 010840Z 0106/0212 28010KT 9999 BKN020 PROB40 TEMPO 0106/0112 34015G25KT 2500 SHRA SHGS BKN004 BKN009CB BECMG 0106/0108 34013KT BECMG 0118/0120 4000 BR BKN006 BECMG 0122/0124 04006KT PROB40 TEMPO 0202/0210 1200 BCFG BR BKN002
  • EBCV - CHIÈVRES
    EBCV 010855Z AUTO 33015KT //// OVC016/// 08/06 Q1017 WHT
    TAF EBCV 010541Z 0107/0116 31008KT 9000 BKN025 TEMPO 0107/0113 7000 -RA BKN013 OVC030 TEMPO 0113/0116 36012G22KT 5000 -SHRA SCT020 PROB30 TEMPO 0113/0116 36015G25KT 3500 SHRAGS BKN017TCU BY EBWM
  • EBDT - DIEST / SCHAFFEN
    EBDT 010855Z AUTO 34013KT 4000 -RA SCT005/// BKN007/// BKN010/// 08/07 Q1015 YLO
  • EBFN - KOKSIJDE
    EBFN 010913Z 01018G30KT 8000 FEW010 SCT023 BKN040 08/05 Q1020 WHT WHT TEMPO GRN
    TAF EBFN 010541Z 0107/0116 35025G35KT 9999 FEW020 SCT030 PROB30 TEMPO 0107/0109 35025G35KT 4000 SHRA SCT010 BKN012TCU PROB30 TEMPO 0111/0114 6000 -SHRA SCT020 BKN025 BECMG 0113/0115 010020G030KT
  • EBFS - FLORENNES
    EBFS 010913Z 33011KT 2000 -RA SCT003 BKN004 06/06 Q1015 YLO YLO
    TAF AMD EBFS 010615Z 0107/0116 34010G20KT 9999 -SHRA -RA SCT005 BKN010TCU BKN015 TEMPO 0110/0113 35015G27KT 3000 SHRA RA SCT002 BKN008TCU BKN008 BECMG 0113/0115 34010G20KT 9999 SCT010 BKN015 TEMPO0113/0116 34010G25KT 6000 BKN010TCU BKN015
  • EBLB - ELSENBORN
    EBLB 010855Z AUTO 29004KT 0800 -DZ OVC003/// 03/03 Q1013 AMB
  • EBLG - LIÈGE / LIÈGE
    EBLG 010850Z 30006KT 240V330 2000 SHRA SCT002 BKN003 BKN010TCU 06/06 Q1014 BECMG 8000 NSW BKN005 TEM
    TAF AMD EBLG 010840Z 0106/0212 28010KT 9999 BKN015 PROB40 TEMPO 0106/0115 34015G25KT 2500 SHRA SHGS BKN004 BKN009CB BECMG 0108/0110 34013KT BECMG 0116/0118 4000 BR -DZ BKN006 BECMG 0121/0123 04005KT PROB40 TEMPO 0201/0210 1200 BCFG BR BKN002
  • EBOS - OOSTENDE-BRUGGE / OOSTENDE
    EBOS 010850Z 36015G25KT 320V030 9000 -SHRA FEW020 SCT028 09/04 Q1019 NOSIG
    TAF EBOS 010501Z 0106/0212 35022KT 9999 BKN020 TEMPO 0119/0124 4000 SHRA RA BKN014 BECMG 0120/0122 02012KT BECMG 0204/0206 08005KT BECMG 0206/0208 4500 BR BKN010
Nederland
  • EHAK - A12-CPP HELIPAD OIL 2011
    EHAK 010855Z AUTO 36036KT 330V060 9999 FEW018/// SCT023/// BKN028/// 09/05 Q1019
  • EHAM - AMSTERDAM AIRPORT SCHIPHOL
    EHAM 010855Z 35015KT 320V030 9999 FEW020CB SCT030 09/05 Q1016 NOSIG
    TAF EHAM 010512Z 0106/0212 34015G25KT 9999 SCT018 BKN030 TEMPO 0106/0110 35022G35KT 6000 SHRA SCT018CB BKN030 BECMG 0114/0116 36008KT BECMG 0122/0201 04005KT 4500 BR SCT005 BKN008 PROB30 0200/0212 2000 -DZ SCT002 BKN003
  • EHBK - MAASTRICHT AACHEN AIRPORT
    EHBK 010855Z AUTO 26003KT 210V340 3100 BR OVC001 07/06 Q1014 BECMG 5000 BKN003
    TAF COR EHBK 010740Z 0107/0212 25005KT 4000 BR BKN004 TEMPO 0107/0111 2000 BKN002 TEMPO 0109/0115 RA SHRA BR BKN006 SCT015CB BECMG 0111/0113 33012KT BKN018 BECMG 0118/0121 03008KT 2000 BR BKN004 PROB40 0119/0212 0800 -DZ FG BKN001
  • EHDL - DEELEN AIR BASE
    EHDL 010855Z AUTO 33011KT 290V010 6000 -RA FEW009 FEW015CB BKN016 OVC021 08/08 Q1014 WHT
  • EHDV - D15-FA-1 SEA
    EHDV 010855Z AUTO 01035KT //// // FEW020/// BKN033/// BKN039/// 09/04 Q1020 RE//
  • EHEH - EINDHOVEN AIRPORT
    EHEH 010907Z AUTO 35013KT 280V030 7000 -UP FEW008 BKN010 BKN013 08/07 Q1015 GRN TEMPO 2500 RA SHRA S
    TAF EHEH 010544Z 0106/0212 25006KT 4500 -RA SCT012 BKN028 PROB40 TEMPO 0106/0111 33012G24KT 2500 RA SHRA SCT005 FEW010CB BKN014 BECMG 0110/0112 36012KT 9999 SCT018 SCT035 BECMG 0117/0119 03006KT 3000 -DZRA SCT005 BKN010 PROB30 TEMPO 0119/0212 1500 DZ SCT0
  • EHFD - F-3 PLATFORM
    EHFD 010855Z AUTO /////KT 9999 // FEW016/// SCT020/// BKN028/// 10/06 Q1017 RE//
  • EHFS - VLISSINGEN
    EHFS 010855Z AUTO 35017G27KT 310V030 9999 FEW021/// SCT027/// BKN031/// 09/05 Q1017
  • EHGG - GRONINGEN AIRPORT EELDE
    EHGG 010855Z AUTO 35012KT 300V030 9999 -RA SCT006 BKN008 OVC010 09/08 Q1013 RERA REDZ BECMG SCT012 B
    TAF EHGG 010522Z 0106/0212 34014KT 9999 BKN025 TEMPO 0106/0109 6000 SHRA RA BKN012 SCT015CB PROB30 0106/0107 4000 BR BKN005 BECMG 0116/0119 03010KT 4000 BR BKN008 BECMG 0119/0121 06007KT PROB40 0121/0212 2000 -DZ BR BKN002
  • EHGR - GILZE-RIJEN AIR BASE
    EHGR 010912Z AUTO 34014KT 290V040 7000 -DZ FEW008/// SCT010/// BKN016/// 08/07 Q1016 GRN TEMPO 4000
    TAF EHGR 010536Z 0106/0118 33010G20KT 4500 -RA SCT010 BKN026 PROB40 TEMPO 0106/0108 35014G26KT 3000 RA SHRA SCT005 FEW012CB BKN018 BECMG 0109/0111 36012KT 9999 FEW018 SCT035
  • EHJA - J6-A SEA, NETHERLANDS
    EHJA 010855Z AUTO 36028KT //// // FEW017/// SCT027/// BKN033/// 10/05 Q1019 RE//
  • EHJR - K13-A PLATFORM
    EHJR 010855Z AUTO 00000KT //// // ///////// 09/05 Q1019 RE// W///H39
  • EHKD - DEN HELDER AIRPORT
    EHKD 010855Z AUTO 36013G23KT 320V040 9999 FEW029 OVC037 10/04 Q1016 BLU NOSIG
    TAF EHKD 010506Z 0106/0118 35015G25KT 9999 FEW018 BKN035 PROB40 TEMPO 0106/0108 35018G32KT 4000 RA SHRA SCT012 FEW018CB BKN022 BECMG 0107/0109 36013KT
  • EHKV - K14-FA-1C PLATFORM
    EHKV 010855Z AUTO 01032KT 330V030 9999 FEW018 SCT026 10/06 Q1018
  • EHLE - LELYSTAD AIRPORT
    EHLE 010855Z AUTO 35014KT 320V020 9999 SCT022 OVC025 09/06 Q1015 TEMPO 5000 SHRA SCT018CB
    TAF EHLE 010512Z 0106/0212 32010KT 9999 SCT017 BKN030 BECMG 0106/0109 35015G25KT PROB40 TEMPO 0106/0110 35022G35KT 6000 SHRA SCT018CB BKN030 BECMG 0115/0118 02010KT BECMG 0120/0123 06005KT 4500 BR SCT005 BKN008 PROB40 0122/0212 1400 -DZ SCT002 BKN003
  • EHLW - LEEUWARDEN AIR BASE
    EHLW 010855Z AUTO 36019KT 9999 BKN035 OVC040 09/06 Q1015 BLU
    TAF EHLW 010522Z 0106/0118 34016KT 9999 FEW018 BKN035 PROB40 TEMPO 0106/0108 35018G30KT 4000 RA SHRA SCT012 FEW018CB BKN022 BECMG 0107/0109 36012KT
  • EHMA - AWG-1 PLATFORM
    EHMA 010855Z AUTO 36036KT 9999 FEW023 BKN027 OVC030 10/05 Q1014
  • EHMG - L9-FF-1 PLATFORM
    EHMG 010855Z AUTO 36032KT 9999 FEW010 SCT028 BKN036 10/05 Q1017
  • EHPG - P11-B SEA, NETHERLANDS
    EHPG 010855Z AUTO 35025G39KT 280V050 9999 FEW022 SCT026 BKN037 10/05 Q1018
  • EHQE - HOORN-A SEA, NETHERLANDS
    EHQE 010855Z AUTO 32037KT 9999 FEW023 SCT035 BKN039 10/04 Q1016
  • EHRD - ROTTERDAM THE HAGUE AIRPORT
    EHRD 010855Z AUTO 35015KT 310V030 9999 FEW021 SCT025 BKN029 09/06 Q1016 TEMPO 6000 SHRA SCT018CB
    TAF COR EHRD 010517Z 0106/0212 35015G25KT 9999 SCT017 BKN030 TEMPO 0106/0110 35022G35KT 5000 SHRA SCT018CB BKN030 BECMG 0115/0118 04010KT BECMG 0122/0201 03005KT 4500 BR SCT005 BKN008 PROB40 0200/0212 2500 -DZ SCT002 BKN003
  • EHSA - EURO PLATFORM
    EHSA 010855Z AUTO 35032KT 9999 ///////// 10/05 Q1018 REDZ W10/H37
  • EHSC - LICHTEILAND GOEREE
    EHSC 010855Z AUTO 36035KT 9999 ///////// 10/06 Q1017 W11/H38
  • EHVK - VOLKEL AIR BASE
    EHVK 010908Z AUTO 34008KT 310V040 9999 FEW007 SCT008 BKN009 08/07 Q1014 GRN
    TAF EHVK 010538Z 0106/0118 25004KT 8000 SCT012 BKN028 BECMG 0108/0110 32010G20KT 4500 -RA BKN010 PROB40 TEMPO 0108/0110 35012G24KT 3000 RA SHRA SCT005 FEW012CB BKN018 BECMG 0109/0111 36012KT 9999 SCT018 SCT035
  • EHVL - VLIELAND HELIPORT
    EHVL 010855Z AUTO 36025KT 9999 SCT027 BKN033 OVC039 10/05 Q1016 BLU
  • EHWO - WOENSDRECHT AIR BASE
    EHWO 010910Z AUTO 35010KT 280V040 9999 DZ FEW025 BKN029 OVC035 08/07 Q1016 BLU TEMPO 34014G24KT 3500
    TAF EHWO 010526Z 0106/0118 34010G20KT 4500 -RA SCT010 BKN026 PROB40 TEMPO 0106/0108 35014G26KT 3000 RA SHRA SCT005 FEW012CB BKN018 BECMG 0109/0111 36012KT 9999 FEW018 SCT035
Luxemburg
  • ELLX - LUXEMBOURG FINDEL AIRPORT
    ELLX 010850Z 28006KT 5000 BR FEW004 SCT012 02/02 Q1014 NOSIG
    TAF ELLX 010500Z 0106/0212 24005KT 2000 BR BKN004 TEMPO 0106/0108 0500 FG -SN VV001 BECMG 0106/0108 32008KT 9999 BKN012 TEMPO 0107/0120 3000 RA OVC006 BECMG 0120/0122 0700 FG VV001

Buienradar



Weerbericht - Voorspelling